sensor_id;sensor_type;location;lat;lon;timestamp;temperature;humidity
45283;DHT22;31023;44.994;1.796;2024-03-08T00:00:27;9.20;68.50
45283;DHT22;31023;44.994;1.796;2024-03-08T00:02:52;9.10;69.20
45283;DHT22;31023;44.994;1.796;2024-03-08T00:05:19;9.00;69.50
45283;DHT22;31023;44.994;1.796;2024-03-08T00:07:45;8.90;70.10
45283;DHT22;31023;44.994;1.796;2024-03-08T00:10:12;9.00;69.50
45283;DHT22;31023;44.994;1.796;2024-03-08T00:12:41;9.10;69.20
45283;DHT22;31023;44.994;1.796;2024-03-08T00:15:10;9.10;69.20
45283;DHT22;31023;44.994;1.796;2024-03-08T00:17:36;9.10;69.10
45283;DHT22;31023;44.994;1.796;2024-03-08T00:20:02;9.10;69.90
45283;DHT22;31023;44.994;1.796;2024-03-08T00:22:34;9.10;69.00
45283;DHT22;31023;44.994;1.796;2024-03-08T00:24:59;9.10;69.40
45283;DHT22;31023;44.994;1.796;2024-03-08T00:27:25;9.00;69.60
45283;DHT22;31023;44.994;1.796;2024-03-08T00:29:50;9.10;69.50
45283;DHT22;31023;44.994;1.796;2024-03-08T00:32:16;9.10;69.60
45283;DHT22;31023;44.994;1.796;2024-03-08T00:34:42;9.20;69.50
45283;DHT22;31023;44.994;1.796;2024-03-08T00:37:08;9.00;69.70
45283;DHT22;31023;44.994;1.796;2024-03-08T00:39:34;9.10;69.40
45283;DHT22;31023;44.994;1.796;2024-03-08T00:41:59;9.30;68.70
45283;DHT22;31023;44.994;1.796;2024-03-08T00:44:25;9.20;69.10
45283;DHT22;31023;44.994;1.796;2024-03-08T00:46:50;9.30;68.90
45283;DHT22;31023;44.994;1.796;2024-03-08T00:49:16;9.30;68.70
45283;DHT22;31023;44.994;1.796;2024-03-08T00:51:42;9.30;68.80
45283;DHT22;31023;44.994;1.796;2024-03-08T00:54:09;9.30;69.00
45283;DHT22;31023;44.994;1.796;2024-03-08T00:56:34;9.30;69.00
45283;DHT22;31023;44.994;1.796;2024-03-08T00:59:01;9.20;69.00
45283;DHT22;31023;44.994;1.796;2024-03-08T01:01:28;9.20;69.20
45283;DHT22;31023;44.994;1.796;2024-03-08T01:03:53;9.20;69.30
45283;DHT22;31023;44.994;1.796;2024-03-08T01:06:19;9.20;69.40
45283;DHT22;31023;44.994;1.796;2024-03-08T01:08:45;9.30;69.10
45283;DHT22;31023;44.994;1.796;2024-03-08T01:11:12;9.30;68.90
45283;DHT22;31023;44.994;1.796;2024-03-08T01:13:38;9.20;69.30
45283;DHT22;31023;44.994;1.796;2024-03-08T01:16:03;9.10;69.70
45283;DHT22;31023;44.994;1.796;2024-03-08T01:18:29;9.20;69.30
45283;DHT22;31023;44.994;1.796;2024-03-08T01:20:55;9.00;69.70
45283;DHT22;31023;44.994;1.796;2024-03-08T01:23:20;9.20;69.60
45283;DHT22;31023;44.994;1.796;2024-03-08T01:25:46;9.20;69.10
45283;DHT22;31023;44.994;1.796;2024-03-08T01:28:12;9.30;68.70
45283;DHT22;31023;44.994;1.796;2024-03-08T01:30:38;9.30;68.50
45283;DHT22;31023;44.994;1.796;2024-03-08T01:33:04;9.30;68.80
45283;DHT22;31023;44.994;1.796;2024-03-08T01:35:29;9.20;69.10
45283;DHT22;31023;44.994;1.796;2024-03-08T01:37:55;9.30;68.50
45283;DHT22;31023;44.994;1.796;2024-03-08T01:40:20;9.20;69.00
45283;DHT22;31023;44.994;1.796;2024-03-08T01:42:46;9.30;68.80
45283;DHT22;31023;44.994;1.796;2024-03-08T01:45:13;9.20;69.30
45283;DHT22;31023;44.994;1.796;2024-03-08T01:47:38;9.30;68.70
45283;DHT22;31023;44.994;1.796;2024-03-08T01:50:04;9.40;68.40
45283;DHT22;31023;44.994;1.796;2024-03-08T01:52:32;9.30;68.80
45283;DHT22;31023;44.994;1.796;2024-03-08T01:55:00;9.20;69.80
45283;DHT22;31023;44.994;1.796;2024-03-08T01:57:27;9.20;69.30
45283;DHT22;31023;44.994;1.796;2024-03-08T01:59:53;9.20;69.10
45283;DHT22;31023;44.994;1.796;2024-03-08T02:02:21;9.20;69.00
45283;DHT22;31023;44.994;1.796;2024-03-08T02:04:47;9.20;69.20
45283;DHT22;31023;44.994;1.796;2024-03-08T02:07:12;9.10;69.60
45283;DHT22;31023;44.994;1.796;2024-03-08T02:09:38;9.10;69.50
45283;DHT22;31023;44.994;1.796;2024-03-08T02:12:05;9.30;69.00
45283;DHT22;31023;44.994;1.796;2024-03-08T02:14:30;9.30;68.70
45283;DHT22;31023;44.994;1.796;2024-03-08T02:17:00;9.20;68.90
45283;DHT22;31023;44.994;1.796;2024-03-08T02:19:25;9.40;68.40
45283;DHT22;31023;44.994;1.796;2024-03-08T02:21:51;9.20;68.90
45283;DHT22;31023;44.994;1.796;2024-03-08T02:24:16;9.20;69.10
45283;DHT22;31023;44.994;1.796;2024-03-08T02:26:42;9.30;69.10
45283;DHT22;31023;44.994;1.796;2024-03-08T02:29:08;9.30;68.70
45283;DHT22;31023;44.994;1.796;2024-03-08T02:31:34;9.30;69.10
45283;DHT22;31023;44.994;1.796;2024-03-08T02:33:59;9.20;69.40
45283;DHT22;31023;44.994;1.796;2024-03-08T02:36:25;9.20;69.30
45283;DHT22;31023;44.994;1.796;2024-03-08T02:38:50;9.20;69.30
45283;DHT22;31023;44.994;1.796;2024-03-08T02:41:16;9.20;69.20
45283;DHT22;31023;44.994;1.796;2024-03-08T02:43:41;9.30;69.00
45283;DHT22;31023;44.994;1.796;2024-03-08T02:46:07;9.30;69.00
45283;DHT22;31023;44.994;1.796;2024-03-08T02:48:33;9.20;69.30
45283;DHT22;31023;44.994;1.796;2024-03-08T02:50:59;9.30;69.20
45283;DHT22;31023;44.994;1.796;2024-03-08T02:53:24;9.30;69.10
45283;DHT22;31023;44.994;1.796;2024-03-08T02:55:50;9.30;69.00
45283;DHT22;31023;44.994;1.796;2024-03-08T02:58:16;9.20;69.40
45283;DHT22;31023;44.994;1.796;2024-03-08T03:00:41;9.30;69.20
45283;DHT22;31023;44.994;1.796;2024-03-08T03:03:09;9.20;69.60
45283;DHT22;31023;44.994;1.796;2024-03-08T03:05:35;9.30;69.40
45283;DHT22;31023;44.994;1.796;2024-03-08T03:08:00;9.20;69.30
45283;DHT22;31023;44.994;1.796;2024-03-08T03:10:26;9.20;69.50
45283;DHT22;31023;44.994;1.796;2024-03-08T03:12:51;9.10;69.90
45283;DHT22;31023;44.994;1.796;2024-03-08T03:15:18;9.10;70.20
45283;DHT22;31023;44.994;1.796;2024-03-08T03:17:47;9.20;69.50
45283;DHT22;31023;44.994;1.796;2024-03-08T03:20:13;9.10;69.60
45283;DHT22;31023;44.994;1.796;2024-03-08T03:22:39;9.20;70.00
45283;DHT22;31023;44.994;1.796;2024-03-08T03:25:06;9.20;69.70
45283;DHT22;31023;44.994;1.796;2024-03-08T03:27:32;9.10;70.00
45283;DHT22;31023;44.994;1.796;2024-03-08T03:29:58;9.20;69.90
45283;DHT22;31023;44.994;1.796;2024-03-08T03:32:23;9.30;69.50
45283;DHT22;31023;44.994;1.796;2024-03-08T03:34:49;9.50;68.40
45283;DHT22;31023;44.994;1.796;2024-03-08T03:37:20;9.40;68.70
45283;DHT22;31023;44.994;1.796;2024-03-08T03:39:46;9.30;69.20
45283;DHT22;31023;44.994;1.796;2024-03-08T03:42:16;9.20;69.70
45283;DHT22;31023;44.994;1.796;2024-03-08T03:44:44;9.20;69.80
45283;DHT22;31023;44.994;1.796;2024-03-08T03:47:10;9.20;70.00
45283;DHT22;31023;44.994;1.796;2024-03-08T03:49:35;9.30;69.60
45283;DHT22;31023;44.994;1.796;2024-03-08T03:52:01;9.40;69.30
45283;DHT22;31023;44.994;1.796;2024-03-08T03:54:26;9.30;69.30
45283;DHT22;31023;44.994;1.796;2024-03-08T03:56:52;9.20;70.00
45283;DHT22;31023;44.994;1.796;2024-03-08T03:59:18;9.30;69.10
45283;DHT22;31023;44.994;1.796;2024-03-08T04:01:44;9.30;69.20
45283;DHT22;31023;44.994;1.796;2024-03-08T04:04:09;9.20;69.30
45283;DHT22;31023;44.994;1.796;2024-03-08T04:06:35;9.20;69.30
45283;DHT22;31023;44.994;1.796;2024-03-08T04:09:00;9.30;68.90
45283;DHT22;31023;44.994;1.796;2024-03-08T04:11:26;9.20;69.30
45283;DHT22;31023;44.994;1.796;2024-03-08T04:13:51;9.20;69.30
45283;DHT22;31023;44.994;1.796;2024-03-08T04:16:19;9.30;68.30
45283;DHT22;31023;44.994;1.796;2024-03-08T04:18:45;9.20;68.50
45283;DHT22;31023;44.994;1.796;2024-03-08T04:21:11;9.30;68.30
45283;DHT22;31023;44.994;1.796;2024-03-08T04:23:36;9.20;68.50
45283;DHT22;31023;44.994;1.796;2024-03-08T04:26:02;9.20;68.20
45283;DHT22;31023;44.994;1.796;2024-03-08T04:28:29;9.40;67.60
45283;DHT22;31023;44.994;1.796;2024-03-08T04:30:55;9.30;67.70
45283;DHT22;31023;44.994;1.796;2024-03-08T04:33:20;9.30;67.80
45283;DHT22;31023;44.994;1.796;2024-03-08T04:35:47;9.30;68.00
45283;DHT22;31023;44.994;1.796;2024-03-08T04:38:12;9.30;68.00
45283;DHT22;31023;44.994;1.796;2024-03-08T04:40:38;9.40;67.70
45283;DHT22;31023;44.994;1.796;2024-03-08T04:43:03;9.40;67.60
45283;DHT22;31023;44.994;1.796;2024-03-08T04:45:29;9.40;67.70
45283;DHT22;31023;44.994;1.796;2024-03-08T04:47:54;9.40;67.50
45283;DHT22;31023;44.994;1.796;2024-03-08T04:50:20;9.30;67.90
45283;DHT22;31023;44.994;1.796;2024-03-08T04:52:46;9.30;67.50
45283;DHT22;31023;44.994;1.796;2024-03-08T04:55:11;9.40;67.50
45283;DHT22;31023;44.994;1.796;2024-03-08T04:57:37;9.40;67.30
45283;DHT22;31023;44.994;1.796;2024-03-08T05:00:03;9.40;67.50
45283;DHT22;31023;44.994;1.796;2024-03-08T05:02:33;9.40;67.50
45283;DHT22;31023;44.994;1.796;2024-03-08T05:04:58;9.40;67.30
45283;DHT22;31023;44.994;1.796;2024-03-08T05:07:24;9.40;67.50
45283;DHT22;31023;44.994;1.796;2024-03-08T05:09:49;9.40;68.50
45283;DHT22;31023;44.994;1.796;2024-03-08T05:12:17;9.30;68.10
45283;DHT22;31023;44.994;1.796;2024-03-08T05:14:43;9.40;67.90
45283;DHT22;31023;44.994;1.796;2024-03-08T05:17:08;9.40;68.40
45283;DHT22;31023;44.994;1.796;2024-03-08T05:19:35;9.30;68.60
45283;DHT22;31023;44.994;1.796;2024-03-08T05:22:01;9.50;68.30
45283;DHT22;31023;44.994;1.796;2024-03-08T05:24:27;9.40;68.50
45283;DHT22;31023;44.994;1.796;2024-03-08T05:26:52;9.40;68.50
45283;DHT22;31023;44.994;1.796;2024-03-08T05:29:18;9.40;68.30
45283;DHT22;31023;44.994;1.796;2024-03-08T05:31:51;9.40;68.80
45283;DHT22;31023;44.994;1.796;2024-03-08T05:34:17;9.50;68.20
45283;DHT22;31023;44.994;1.796;2024-03-08T05:36:48;9.50;67.70
45283;DHT22;31023;44.994;1.796;2024-03-08T05:39:16;9.40;68.40
45283;DHT22;31023;44.994;1.796;2024-03-08T05:41:42;9.50;67.90
45283;DHT22;31023;44.994;1.796;2024-03-08T05:44:08;9.40;68.00
45283;DHT22;31023;44.994;1.796;2024-03-08T05:46:34;9.50;67.70
45283;DHT22;31023;44.994;1.796;2024-03-08T05:49:01;9.40;68.10
45283;DHT22;31023;44.994;1.796;2024-03-08T05:51:34;9.40;67.80
45283;DHT22;31023;44.994;1.796;2024-03-08T05:54:09;9.40;68.00
45283;DHT22;31023;44.994;1.796;2024-03-08T05:56:35;9.30;68.00
45283;DHT22;31023;44.994;1.796;2024-03-08T05:59:01;9.30;68.10
45283;DHT22;31023;44.994;1.796;2024-03-08T06:01:27;9.40;67.30
45283;DHT22;31023;44.994;1.796;2024-03-08T06:03:53;9.40;67.50
45283;DHT22;31023;44.994;1.796;2024-03-08T06:06:21;9.30;68.00
45283;DHT22;31023;44.994;1.796;2024-03-08T06:08:47;9.20;68.40
45283;DHT22;31023;44.994;1.796;2024-03-08T06:11:17;9.30;68.00
45283;DHT22;31023;44.994;1.796;2024-03-08T06:13:43;9.20;68.30
45283;DHT22;31023;44.994;1.796;2024-03-08T06:16:09;9.30;68.00
45283;DHT22;31023;44.994;1.796;2024-03-08T06:18:35;9.30;68.20
45283;DHT22;31023;44.994;1.796;2024-03-08T06:21:03;9.20;68.70
45283;DHT22;31023;44.994;1.796;2024-03-08T06:23:33;9.30;68.10
45283;DHT22;31023;44.994;1.796;2024-03-08T06:25:59;9.20;68.20
45283;DHT22;31023;44.994;1.796;2024-03-08T06:28:25;9.30;68.00
45283;DHT22;31023;44.994;1.796;2024-03-08T06:30:51;9.20;68.80
45283;DHT22;31023;44.994;1.796;2024-03-08T06:33:17;9.20;68.70
45283;DHT22;31023;44.994;1.796;2024-03-08T06:35:42;9.20;68.40
45283;DHT22;31023;44.994;1.796;2024-03-08T06:38:08;9.20;68.30
45283;DHT22;31023;44.994;1.796;2024-03-08T06:40:33;9.30;68.00
45283;DHT22;31023;44.994;1.796;2024-03-08T06:42:59;9.20;67.70
45283;DHT22;31023;44.994;1.796;2024-03-08T06:45:24;9.20;67.80
45283;DHT22;31023;44.994;1.796;2024-03-08T06:47:51;9.30;67.60
45283;DHT22;31023;44.994;1.796;2024-03-08T06:50:16;9.30;67.40
45283;DHT22;31023;44.994;1.796;2024-03-08T06:52:42;9.30;67.80
45283;DHT22;31023;44.994;1.796;2024-03-08T06:55:09;9.30;67.30
45283;DHT22;31023;44.994;1.796;2024-03-08T06:57:38;9.30;67.00
45283;DHT22;31023;44.994;1.796;2024-03-08T07:00:06;9.40;66.80
45283;DHT22;31023;44.994;1.796;2024-03-08T07:02:34;9.40;66.40
45283;DHT22;31023;44.994;1.796;2024-03-08T07:05:01;9.50;66.20
45283;DHT22;31023;44.994;1.796;2024-03-08T07:07:26;9.40;66.50
45283;DHT22;31023;44.994;1.796;2024-03-08T07:09:52;9.50;66.30
45283;DHT22;31023;44.994;1.796;2024-03-08T07:12:18;9.60;65.60
45283;DHT22;31023;44.994;1.796;2024-03-08T07:14:43;9.70;65.00
45283;DHT22;31023;44.994;1.796;2024-03-08T07:17:11;9.70;65.10
45283;DHT22;31023;44.994;1.796;2024-03-08T07:19:37;9.70;65.20
45283;DHT22;31023;44.994;1.796;2024-03-08T07:22:03;9.80;64.80
45283;DHT22;31023;44.994;1.796;2024-03-08T07:24:29;9.80;64.40
45283;DHT22;31023;44.994;1.796;2024-03-08T07:27:13;9.80;64.70
45283;DHT22;31023;44.994;1.796;2024-03-08T07:29:39;9.90;65.00
45283;DHT22;31023;44.994;1.796;2024-03-08T07:32:04;9.90;65.10
45283;DHT22;31023;44.994;1.796;2024-03-08T07:34:49;10.00;64.20
45283;DHT22;31023;44.994;1.796;2024-03-08T07:37:18;10.10;64.20
45283;DHT22;31023;44.994;1.796;2024-03-08T07:39:45;10.30;64.10
45283;DHT22;31023;44.994;1.796;2024-03-08T07:42:11;10.60;63.30
45283;DHT22;31023;44.994;1.796;2024-03-08T07:44:37;11.00;61.90
45283;DHT22;31023;44.994;1.796;2024-03-08T07:47:03;10.90;62.80
45283;DHT22;31023;44.994;1.796;2024-03-08T07:49:29;11.30;61.70
45283;DHT22;31023;44.994;1.796;2024-03-08T07:51:55;11.80;61.00
45283;DHT22;31023;44.994;1.796;2024-03-08T07:54:23;11.30;60.70
45283;DHT22;31023;44.994;1.796;2024-03-08T07:56:48;12.00;60.30
45283;DHT22;31023;44.994;1.796;2024-03-08T07:59:14;11.60;60.50
45283;DHT22;31023;44.994;1.796;2024-03-08T08:01:40;11.50;61.10
45283;DHT22;31023;44.994;1.796;2024-03-08T08:04:06;11.50;61.50
45283;DHT22;31023;44.994;1.796;2024-03-08T08:06:31;11.10;62.70
45283;DHT22;31023;44.994;1.796;2024-03-08T08:09:02;11.10;62.80
45283;DHT22;31023;44.994;1.796;2024-03-08T08:11:28;11.10;63.10
45283;DHT22;31023;44.994;1.796;2024-03-08T08:13:54;11.30;64.50
45283;DHT22;31023;44.994;1.796;2024-03-08T08:16:20;11.50;63.50
45283;DHT22;31023;44.994;1.796;2024-03-08T08:18:46;11.40;63.00
45283;DHT22;31023;44.994;1.796;2024-03-08T08:21:13;11.10;63.90
45283;DHT22;31023;44.994;1.796;2024-03-08T08:23:38;11.30;63.80
45283;DHT22;31023;44.994;1.796;2024-03-08T08:26:04;11.10;64.20
45283;DHT22;31023;44.994;1.796;2024-03-08T08:28:30;11.10;64.40
45283;DHT22;31023;44.994;1.796;2024-03-08T08:30:56;11.10;64.80
45283;DHT22;31023;44.994;1.796;2024-03-08T08:33:21;11.10;65.00
45283;DHT22;31023;44.994;1.796;2024-03-08T08:35:47;11.00;65.60
45283;DHT22;31023;44.994;1.796;2024-03-08T08:38:13;11.00;65.90
45283;DHT22;31023;44.994;1.796;2024-03-08T08:40:38;11.00;65.80
45283;DHT22;31023;44.994;1.796;2024-03-08T08:43:04;10.90;66.30
45283;DHT22;31023;44.994;1.796;2024-03-08T08:45:33;10.90;66.50
45283;DHT22;31023;44.994;1.796;2024-03-08T08:47:58;11.00;66.20
45283;DHT22;31023;44.994;1.796;2024-03-08T08:50:27;11.00;66.40
45283;DHT22;31023;44.994;1.796;2024-03-08T08:52:53;11.10;66.80
45283;DHT22;31023;44.994;1.796;2024-03-08T08:55:19;11.10;66.60
45283;DHT22;31023;44.994;1.796;2024-03-08T08:57:53;11.00;66.20
45283;DHT22;31023;44.994;1.796;2024-03-08T09:00:19;11.10;66.20
45283;DHT22;31023;44.994;1.796;2024-03-08T09:02:46;11.10;66.30
45283;DHT22;31023;44.994;1.796;2024-03-08T09:05:12;11.10;66.30
45283;DHT22;31023;44.994;1.796;2024-03-08T09:07:37;11.10;67.20
45283;DHT22;31023;44.994;1.796;2024-03-08T09:10:03;11.20;66.60
45283;DHT22;31023;44.994;1.796;2024-03-08T09:12:29;11.20;66.30
45283;DHT22;31023;44.994;1.796;2024-03-08T09:14:54;11.30;66.40
45283;DHT22;31023;44.994;1.796;2024-03-08T09:17:20;11.30;66.30
45283;DHT22;31023;44.994;1.796;2024-03-08T09:19:46;11.20;66.80
45283;DHT22;31023;44.994;1.796;2024-03-08T09:22:13;11.20;66.70
45283;DHT22;31023;44.994;1.796;2024-03-08T09:24:38;11.10;67.10
45283;DHT22;31023;44.994;1.796;2024-03-08T09:27:04;11.00;67.30
45283;DHT22;31023;44.994;1.796;2024-03-08T09:29:29;11.20;67.50
45283;DHT22;31023;44.994;1.796;2024-03-08T09:31:55;11.10;67.60
45283;DHT22;31023;44.994;1.796;2024-03-08T09:34:21;11.00;68.60
45283;DHT22;31023;44.994;1.796;2024-03-08T09:36:46;10.90;68.00
45283;DHT22;31023;44.994;1.796;2024-03-08T09:39:12;10.90;68.00
45283;DHT22;31023;44.994;1.796;2024-03-08T09:41:45;10.90;68.30
45283;DHT22;31023;44.994;1.796;2024-03-08T09:44:13;10.90;68.40
45283;DHT22;31023;44.994;1.796;2024-03-08T09:46:39;10.90;68.30
45283;DHT22;31023;44.994;1.796;2024-03-08T09:49:05;10.90;68.30
45283;DHT22;31023;44.994;1.796;2024-03-08T09:51:31;11.00;68.00
45283;DHT22;31023;44.994;1.796;2024-03-08T09:53:58;11.20;67.10
45283;DHT22;31023;44.994;1.796;2024-03-08T09:56:24;11.20;67.30
45283;DHT22;31023;44.994;1.796;2024-03-08T09:58:50;11.30;67.20
45283;DHT22;31023;44.994;1.796;2024-03-08T10:01:45;11.40;67.60
45283;DHT22;31023;44.994;1.796;2024-03-08T10:04:11;11.30;66.80
45283;DHT22;31023;44.994;1.796;2024-03-08T10:06:37;11.60;67.10
45283;DHT22;31023;44.994;1.796;2024-03-08T10:09:03;11.60;66.30
45283;DHT22;31023;44.994;1.796;2024-03-08T10:11:29;11.40;66.40
45283;DHT22;31023;44.994;1.796;2024-03-08T10:13:55;11.50;66.20
45283;DHT22;31023;44.994;1.796;2024-03-08T10:16:21;11.50;65.90
45283;DHT22;31023;44.994;1.796;2024-03-08T10:18:49;11.30;66.70
45283;DHT22;31023;44.994;1.796;2024-03-08T10:21:15;11.20;67.50
45283;DHT22;31023;44.994;1.796;2024-03-08T10:23:42;11.00;67.60
45283;DHT22;31023;44.994;1.796;2024-03-08T10:26:11;11.10;67.90
45283;DHT22;31023;44.994;1.796;2024-03-08T10:28:40;11.00;68.40
45283;DHT22;31023;44.994;1.796;2024-03-08T10:31:06;11.00;68.30
45283;DHT22;31023;44.994;1.796;2024-03-08T10:33:32;10.50;74.70
45283;DHT22;31023;44.994;1.796;2024-03-08T10:35:57;10.70;70.70
45283;DHT22;31023;44.994;1.796;2024-03-08T10:38:23;10.40;82.40
45283;DHT22;31023;44.994;1.796;2024-03-08T10:40:49;10.50;80.70
45283;DHT22;31023;44.994;1.796;2024-03-08T10:43:26;10.10;85.30
45283;DHT22;31023;44.994;1.796;2024-03-08T10:46:00;9.30;97.10
45283;DHT22;31023;44.994;1.796;2024-03-08T10:48:31;8.70;99.90
45283;DHT22;31023;44.994;1.796;2024-03-08T10:50:57;8.30;99.90
45283;DHT22;31023;44.994;1.796;2024-03-08T10:53:23;8.10;99.90
45283;DHT22;31023;44.994;1.796;2024-03-08T10:55:50;8.00;99.90
45283;DHT22;31023;44.994;1.796;2024-03-08T10:58:21;8.10;99.90
45283;DHT22;31023;44.994;1.796;2024-03-08T11:00:47;8.30;99.90
45283;DHT22;31023;44.994;1.796;2024-03-08T11:05:59;7.90;99.90
45283;DHT22;31023;44.994;1.796;2024-03-08T11:08:26;7.90;99.90
45283;DHT22;31023;44.994;1.796;2024-03-08T11:10:52;8.00;99.90
45283;DHT22;31023;44.994;1.796;2024-03-08T11:13:35;8.10;99.90
45283;DHT22;31023;44.994;1.796;2024-03-08T11:16:01;7.90;99.90
45283;DHT22;31023;44.994;1.796;2024-03-08T11:18:33;8.00;99.90
45283;DHT22;31023;44.994;1.796;2024-03-08T11:21:08;8.20;99.90
45283;DHT22;31023;44.994;1.796;2024-03-08T11:23:37;8.40;99.90
45283;DHT22;31023;44.994;1.796;2024-03-08T11:26:20;8.20;99.90
45283;DHT22;31023;44.994;1.796;2024-03-08T11:28:49;8.10;99.90
45283;DHT22;31023;44.994;1.796;2024-03-08T11:31:24;8.10;99.90
45283;DHT22;31023;44.994;1.796;2024-03-08T11:33:50;7.90;99.90
45283;DHT22;31023;44.994;1.796;2024-03-08T11:36:22;7.80;99.90
45283;DHT22;31023;44.994;1.796;2024-03-08T11:38:49;7.80;99.90
45283;DHT22;31023;44.994;1.796;2024-03-08T11:41:20;7.50;99.90
45283;DHT22;31023;44.994;1.796;2024-03-08T11:43:46;7.60;99.90
45283;DHT22;31023;44.994;1.796;2024-03-08T11:46:13;7.30;99.90
45283;DHT22;31023;44.994;1.796;2024-03-08T11:48:42;7.50;99.90
45283;DHT22;31023;44.994;1.796;2024-03-08T11:51:11;7.40;99.90
45283;DHT22;31023;44.994;1.796;2024-03-08T11:53:40;7.50;99.90
45283;DHT22;31023;44.994;1.796;2024-03-08T11:56:12;7.30;99.90
45283;DHT22;31023;44.994;1.796;2024-03-08T11:58:38;7.60;99.90
45283;DHT22;31023;44.994;1.796;2024-03-08T12:01:05;7.80;99.90
45283;DHT22;31023;44.994;1.796;2024-03-08T12:03:40;7.70;99.90
45283;DHT22;31023;44.994;1.796;2024-03-08T12:06:09;7.60;99.90
45283;DHT22;31023;44.994;1.796;2024-03-08T12:08:35;7.80;99.90
45283;DHT22;31023;44.994;1.796;2024-03-08T12:11:04;7.80;99.90
45283;DHT22;31023;44.994;1.796;2024-03-08T12:13:31;7.70;99.90
45283;DHT22;31023;44.994;1.796;2024-03-08T12:15:57;7.50;99.90
45283;DHT22;31023;44.994;1.796;2024-03-08T12:18:26;7.50;99.90
45283;DHT22;31023;44.994;1.796;2024-03-08T12:21:08;7.70;99.90
45283;DHT22;31023;44.994;1.796;2024-03-08T12:23:35;7.70;99.90
45283;DHT22;31023;44.994;1.796;2024-03-08T12:26:12;7.90;99.90
45283;DHT22;31023;44.994;1.796;2024-03-08T12:28:39;8.10;99.90
45283;DHT22;31023;44.994;1.796;2024-03-08T12:31:06;8.00;99.90
45283;DHT22;31023;44.994;1.796;2024-03-08T12:33:36;7.80;99.90
45283;DHT22;31023;44.994;1.796;2024-03-08T12:36:02;7.80;99.90
45283;DHT22;31023;44.994;1.796;2024-03-08T12:38:32;7.90;99.90
45283;DHT22;31023;44.994;1.796;2024-03-08T12:40:58;7.90;99.90
45283;DHT22;31023;44.994;1.796;2024-03-08T12:43:23;7.80;99.90
45283;DHT22;31023;44.994;1.796;2024-03-08T12:45:49;7.60;99.90
45283;DHT22;31023;44.994;1.796;2024-03-08T12:48:15;7.60;99.90
45283;DHT22;31023;44.994;1.796;2024-03-08T12:50:41;7.20;99.90
45283;DHT22;31023;44.994;1.796;2024-03-08T12:53:09;7.10;99.90
45283;DHT22;31023;44.994;1.796;2024-03-08T12:55:34;7.00;99.90
45283;DHT22;31023;44.994;1.796;2024-03-08T12:58:00;7.10;99.90
45283;DHT22;31023;44.994;1.796;2024-03-08T13:00:26;7.00;99.90
45283;DHT22;31023;44.994;1.796;2024-03-08T13:02:53;7.10;99.90
45283;DHT22;31023;44.994;1.796;2024-03-08T13:05:19;7.20;99.90
45283;DHT22;31023;44.994;1.796;2024-03-08T13:07:45;7.40;99.90
45283;DHT22;31023;44.994;1.796;2024-03-08T13:10:14;7.20;99.90
45283;DHT22;31023;44.994;1.796;2024-03-08T13:12:41;7.40;99.90
45283;DHT22;31023;44.994;1.796;2024-03-08T13:15:07;7.40;99.90
45283;DHT22;31023;44.994;1.796;2024-03-08T13:17:34;7.30;99.90
45283;DHT22;31023;44.994;1.796;2024-03-08T13:19:59;7.50;99.90
45283;DHT22;31023;44.994;1.796;2024-03-08T13:22:25;7.50;99.90
45283;DHT22;31023;44.994;1.796;2024-03-08T13:24:51;7.90;99.90
45283;DHT22;31023;44.994;1.796;2024-03-08T13:27:17;8.40;99.90
45283;DHT22;31023;44.994;1.796;2024-03-08T13:29:47;8.90;99.90
45283;DHT22;31023;44.994;1.796;2024-03-08T13:32:16;8.50;99.90
45283;DHT22;31023;44.994;1.796;2024-03-08T13:34:43;8.60;99.90
45283;DHT22;31023;44.994;1.796;2024-03-08T13:37:09;8.80;99.90
45283;DHT22;31023;44.994;1.796;2024-03-08T13:39:37;8.80;99.90
45283;DHT22;31023;44.994;1.796;2024-03-08T13:42:14;8.30;99.90
45283;DHT22;31023;44.994;1.796;2024-03-08T13:44:48;8.20;99.90
45283;DHT22;31023;44.994;1.796;2024-03-08T13:47:14;8.10;99.90
45283;DHT22;31023;44.994;1.796;2024-03-08T13:49:40;7.90;99.90
45283;DHT22;31023;44.994;1.796;2024-03-08T13:52:06;7.70;99.90
45283;DHT22;31023;44.994;1.796;2024-03-08T13:54:34;7.70;99.90
45283;DHT22;31023;44.994;1.796;2024-03-08T13:57:00;7.60;99.90
45283;DHT22;31023;44.994;1.796;2024-03-08T13:59:26;8.00;99.90
45283;DHT22;31023;44.994;1.796;2024-03-08T14:01:54;8.70;99.90
45283;DHT22;31023;44.994;1.796;2024-03-08T14:04:20;9.00;99.90
45283;DHT22;31023;44.994;1.796;2024-03-08T14:06:46;9.00;99.90
45283;DHT22;31023;44.994;1.796;2024-03-08T14:09:12;8.80;99.90
45283;DHT22;31023;44.994;1.796;2024-03-08T14:11:42;9.00;99.90
45283;DHT22;31023;44.994;1.796;2024-03-08T14:14:10;9.20;99.90
45283;DHT22;31023;44.994;1.796;2024-03-08T14:16:36;9.10;99.90
45283;DHT22;31023;44.994;1.796;2024-03-08T14:19:02;8.60;99.90
45283;DHT22;31023;44.994;1.796;2024-03-08T14:21:31;8.90;99.90
45283;DHT22;31023;44.994;1.796;2024-03-08T14:23:57;9.00;99.90
45283;DHT22;31023;44.994;1.796;2024-03-08T14:26:22;8.90;99.90
45283;DHT22;31023;44.994;1.796;2024-03-08T14:28:48;8.70;99.90
45283;DHT22;31023;44.994;1.796;2024-03-08T14:31:17;8.60;99.90
45283;DHT22;31023;44.994;1.796;2024-03-08T14:33:47;8.70;99.90
45283;DHT22;31023;44.994;1.796;2024-03-08T14:36:15;9.00;99.90
45283;DHT22;31023;44.994;1.796;2024-03-08T14:38:46;8.50;99.90
45283;DHT22;31023;44.994;1.796;2024-03-08T14:41:12;8.40;99.90
45283;DHT22;31023;44.994;1.796;2024-03-08T14:43:43;9.00;99.90
45283;DHT22;31023;44.994;1.796;2024-03-08T14:46:13;9.00;99.90
45283;DHT22;31023;44.994;1.796;2024-03-08T14:48:46;8.70;99.90
45283;DHT22;31023;44.994;1.796;2024-03-08T14:51:12;8.50;99.90
45283;DHT22;31023;44.994;1.796;2024-03-08T14:53:42;8.30;99.90
45283;DHT22;31023;44.994;1.796;2024-03-08T14:56:12;8.10;99.90
45283;DHT22;31023;44.994;1.796;2024-03-08T14:58:45;7.90;99.90
45283;DHT22;31023;44.994;1.796;2024-03-08T15:01:11;7.90;99.90
45283;DHT22;31023;44.994;1.796;2024-03-08T15:03:42;7.80;99.90
45283;DHT22;31023;44.994;1.796;2024-03-08T15:06:10;7.90;99.90
45283;DHT22;31023;44.994;1.796;2024-03-08T15:08:37;8.00;99.90
45283;DHT22;31023;44.994;1.796;2024-03-08T15:11:04;8.10;99.90
45283;DHT22;31023;44.994;1.796;2024-03-08T15:13:31;8.00;99.90
45283;DHT22;31023;44.994;1.796;2024-03-08T15:16:08;7.90;99.90
45283;DHT22;31023;44.994;1.796;2024-03-08T15:18:34;7.70;99.90
45283;DHT22;31023;44.994;1.796;2024-03-08T15:21:03;7.80;99.90
45283;DHT22;31023;44.994;1.796;2024-03-08T15:23:34;7.80;99.90
45283;DHT22;31023;44.994;1.796;2024-03-08T15:25:59;7.90;99.90
45283;DHT22;31023;44.994;1.796;2024-03-08T15:28:26;7.80;99.90
45283;DHT22;31023;44.994;1.796;2024-03-08T15:31:01;7.70;99.90
45283;DHT22;31023;44.994;1.796;2024-03-08T15:33:34;7.70;99.90
45283;DHT22;31023;44.994;1.796;2024-03-08T15:36:04;7.70;99.90
45283;DHT22;31023;44.994;1.796;2024-03-08T15:38:33;7.70;99.90
45283;DHT22;31023;44.994;1.796;2024-03-08T15:40:59;7.60;99.90
45283;DHT22;31023;44.994;1.796;2024-03-08T15:43:24;7.70;99.90